sensor_id;sensor_type;location;lat;lon;timestamp;pressure;altitude;pressure_sealevel;temperature;humidity
33422;BME280;19763;55.798;37.782;2023-03-01T00:01:19;146472.84;;;-3.47;56.38
33422;BME280;19763;55.798;37.782;2023-03-01T00:03:45;146470.31;;;-3.48;56.46
33422;BME280;19763;55.798;37.782;2023-03-01T00:06:11;146461.47;;;-3.52;57.20
33422;BME280;19763;55.798;37.782;2023-03-01T00:08:37;146488.06;;;-3.41;56.95
33422;BME280;19763;55.798;37.782;2023-03-01T00:11:40;146434.81;;;-3.62;57.64
33422;BME280;19763;55.798;37.782;2023-03-01T00:14:00;146442.44;;;-3.59;56.66
33422;BME280;19763;55.798;37.782;2023-03-01T00:16:29;146437.38;;;-3.61;57.92
33422;BME280;19763;55.798;37.782;2023-03-01T00:18:56;146444.97;;;-3.58;57.17
33422;BME280;19763;55.798;37.782;2023-03-01T00:21:23;146385.41;;;-3.83;58.08
33422;BME280;19763;55.798;37.782;2023-03-01T00:23:49;146396.81;;;-3.78;57.66
33422;BME280;19763;55.798;37.782;2023-03-01T00:26:16;146398.09;;;-3.77;58.32
33422;BME280;19763;55.798;37.782;2023-03-01T00:28:42;146380.38;;;-3.85;57.62
33422;BME280;19763;55.798;37.782;2023-03-01T00:31:16;146384.16;;;-3.83;58.53
33422;BME280;19763;55.798;37.782;2023-03-01T00:33:42;146366.44;;;-3.90;57.96
33422;BME280;19763;55.798;37.782;2023-03-01T00:36:09;146356.28;;;-3.94;57.97
33422;BME280;19763;55.798;37.782;2023-03-01T00:38:39;146396.81;;;-3.78;58.26
33422;BME280;19763;55.798;37.782;2023-03-01T00:41:16;146361.34;;;-3.92;58.21
33422;BME280;19763;55.798;37.782;2023-03-01T00:43:42;146376.56;;;-3.86;58.23
33422;BME280;19763;55.798;37.782;2023-03-01T00:46:14;146380.38;;;-3.85;59.45
33422;BME280;19763;55.798;37.782;2023-03-01T00:48:40;146375.28;;;-3.87;57.10
33422;BME280;19763;55.798;37.782;2023-03-01T00:53:35;146338.56;;;-4.02;57.54
33422;BME280;19763;55.798;37.782;2023-03-01T00:56:01;146394.31;;;-3.79;57.67
33422;BME280;19763;55.798;37.782;2023-03-01T00:58:28;146351.19;;;-3.96;57.87
33422;BME280;19763;55.798;37.782;2023-03-01T01:00:54;146349.94;;;-3.97;57.88
33422;BME280;19763;55.798;37.782;2023-03-01T01:03:19;146292.97;;;-4.20;57.27
33422;BME280;19763;55.798;37.782;2023-03-01T01:05:45;146311.94;;;-4.12;59.11
33422;BME280;19763;55.798;37.782;2023-03-01T01:08:11;146286.63;;;-4.23;58.10
33422;BME280;19763;55.798;37.782;2023-03-01T01:10:37;146315.72;;;-4.11;57.37
33422;BME280;19763;55.798;37.782;2023-03-01T01:13:03;146304.34;;;-4.16;56.81
33422;BME280;19763;55.798;37.782;2023-03-01T01:15:29;146325.88;;;-4.07;58.31
33422;BME280;19763;55.798;37.782;2023-03-01T01:17:54;146290.41;;;-4.21;57.88
33422;BME280;19763;55.798;37.782;2023-03-01T01:20:20;146330.91;;;-4.05;59.13
33422;BME280;19763;55.798;37.782;2023-03-01T01:22:46;146320.81;;;-4.09;57.59
33422;BME280;19763;55.798;37.782;2023-03-01T01:25:11;146304.34;;;-4.16;58.17
33422;BME280;19763;55.798;37.782;2023-03-01T01:27:37;146280.28;;;-4.25;57.93
33422;BME280;19763;55.798;37.782;2023-03-01T01:30:03;146292.97;;;-4.20;58.71
33422;BME280;19763;55.798;37.782;2023-03-01T01:32:29;146333.47;;;-4.04;58.52
33422;BME280;19763;55.798;37.782;2023-03-01T01:34:55;146328.41;;;-4.06;59.94
33422;BME280;19763;55.798;37.782;2023-03-01T01:37:21;146328.41;;;-4.06;58.57
33422;BME280;19763;55.798;37.782;2023-03-01T01:39:46;146318.28;;;-4.10;60.61
33422;BME280;19763;55.798;37.782;2023-03-01T01:42:17;146328.41;;;-4.06;59.60
33422;BME280;19763;55.798;37.782;2023-03-01T01:44:46;146295.47;;;-4.19;60.25
33422;BME280;19763;55.798;37.782;2023-03-01T01:47:18;146333.47;;;-4.04;59.84
33422;BME280;19763;55.798;37.782;2023-03-01T01:49:53;146310.69;;;-4.13;58.58
33422;BME280;19763;55.798;37.782;2023-03-01T01:52:23;146317.03;;;-4.10;59.52
33422;BME280;19763;55.798;37.782;2023-03-01T01:54:53;146315.72;;;-4.11;59.28
33422;BME280;19763;55.798;37.782;2023-03-01T01:57:42;146306.88;;;-4.14;58.93
33422;BME280;19763;55.798;37.782;2023-03-01T02:00:21;146301.78;;;-4.17;59.20
33422;BME280;19763;55.798;37.782;2023-03-01T02:02:50;146287.88;;;-4.22;59.18
33422;BME280;19763;55.798;37.782;2023-03-01T02:05:37;146310.69;;;-4.13;59.11
33422;BME280;19763;55.798;37.782;2023-03-01T02:08:03;146330.91;;;-4.05;59.31
33422;BME280;19763;55.798;37.782;2023-03-01T02:10:32;146333.47;;;-4.04;58.83
33422;BME280;19763;55.798;37.782;2023-03-01T02:12:58;146295.47;;;-4.19;60.30
33422;BME280;19763;55.798;37.782;2023-03-01T02:15:45;146277.72;;;-4.26;60.17
33422;BME280;19763;55.798;37.782;2023-03-01T02:18:13;146310.69;;;-4.13;60.03
33422;BME280;19763;55.798;37.782;2023-03-01T02:23:28;146267.59;;;-4.30;59.85
33422;BME280;19763;55.798;37.782;2023-03-01T02:26:09;146290.41;;;-4.21;59.69
33422;BME280;19763;55.798;37.782;2023-03-01T02:28:38;146213.16;;;-4.53;59.50
33422;BME280;19763;55.798;37.782;2023-03-01T02:31:07;146239.72;;;-4.42;59.13
33422;BME280;19763;55.798;37.782;2023-03-01T02:33:53;146265.09;;;-4.31;59.82
33422;BME280;19763;55.798;37.782;2023-03-01T02:36:23;146248.59;;;-4.38;59.79
33422;BME280;19763;55.798;37.782;2023-03-01T02:38:51;146218.19;;;-4.51;60.82
33422;BME280;19763;55.798;37.782;2023-03-01T02:41:20;146230.88;;;-4.45;60.64
33422;BME280;19763;55.798;37.782;2023-03-01T02:43:47;146247.34;;;-4.39;60.55
33422;BME280;19763;55.798;37.782;2023-03-01T02:46:20;146248.59;;;-4.38;60.32
33422;BME280;19763;55.798;37.782;2023-03-01T02:48:55;146227.09;;;-4.47;60.26
33422;BME280;19763;55.798;37.782;2023-03-01T02:56:25;146197.97;;;-4.59;61.39
33422;BME280;19763;55.798;37.782;2023-03-01T02:58:51;146177.72;;;-4.67;61.07
33422;BME280;19763;55.798;37.782;2023-03-01T03:01:20;146177.72;;;-4.67;61.81
33422;BME280;19763;55.798;37.782;2023-03-01T03:03:46;146185.31;;;-4.64;61.14
33422;BME280;19763;55.798;37.782;2023-03-01T03:06:12;146181.50;;;-4.65;61.00
33422;BME280;19763;55.798;37.782;2023-03-01T03:08:38;146172.63;;;-4.69;61.74
33422;BME280;19763;55.798;37.782;2023-03-01T03:11:03;146185.31;;;-4.64;61.83
33422;BME280;19763;55.798;37.782;2023-03-01T03:13:29;146172.63;;;-4.69;60.50
33422;BME280;19763;55.798;37.782;2023-03-01T03:15:56;146105.53;;;-4.96;61.97
33422;BME280;19763;55.798;37.782;2023-03-01T03:18:23;146138.47;;;-4.83;62.11
33422;BME280;19763;55.798;37.782;2023-03-01T03:20:51;146154.91;;;-4.76;62.55
33422;BME280;19763;55.798;37.782;2023-03-01T03:23:19;146152.41;;;-4.77;62.45
33422;BME280;19763;55.798;37.782;2023-03-01T03:25:47;146163.78;;;-4.73;62.28
33422;BME280;19763;55.798;37.782;2023-03-01T03:28:12;146142.28;;;-4.81;61.48
33422;BME280;19763;55.798;37.782;2023-03-01T03:30:41;146130.84;;;-4.86;62.15
33422;BME280;19763;55.798;37.782;2023-03-01T03:33:07;146143.53;;;-4.81;62.49
33422;BME280;19763;55.798;37.782;2023-03-01T03:35:59;146171.38;;;-4.70;61.65
33422;BME280;19763;55.798;37.782;2023-03-01T03:38:24;146138.47;;;-4.83;62.06
33422;BME280;19763;55.798;37.782;2023-03-01T03:40:55;146114.41;;;-4.93;62.72
33422;BME280;19763;55.798;37.782;2023-03-01T03:43:26;146095.41;;;-5.00;63.35
33422;BME280;19763;55.798;37.782;2023-03-01T03:45:52;146110.63;;;-4.94;63.00
33422;BME280;19763;55.798;37.782;2023-03-01T03:48:18;146101.75;;;-4.98;62.66
33422;BME280;19763;55.798;37.782;2023-03-01T03:50:48;146106.84;;;-4.96;62.16
33422;BME280;19763;55.798;37.782;2023-03-01T03:53:14;146114.41;;;-4.93;63.62
33422;BME280;19763;55.798;37.782;2023-03-01T03:55:40;146137.19;;;-4.83;62.33
33422;BME280;19763;55.798;37.782;2023-03-01T03:58:07;146097.94;;;-4.99;63.29
33422;BME280;19763;55.798;37.782;2023-03-01T04:00:39;146015.72;;;-5.33;63.64
33422;BME280;19763;55.798;37.782;2023-03-01T04:03:06;146070.09;;;-5.11;63.28
33422;BME280;19763;55.798;37.782;2023-03-01T04:05:32;146092.91;;;-5.01;64.14
33422;BME280;19763;55.798;37.782;2023-03-01T04:07:58;146067.56;;;-5.12;64.04
33422;BME280;19763;55.798;37.782;2023-03-01T04:10:33;146100.50;;;-4.98;63.64
33422;BME280;19763;55.798;37.782;2023-03-01T04:12:59;146120.75;;;-4.90;64.20
33422;BME280;19763;55.798;37.782;2023-03-01T04:15:25;146114.41;;;-4.93;63.55
33422;BME280;19763;55.798;37.782;2023-03-01T04:17:53;146115.66;;;-4.92;63.72
33422;BME280;19763;55.798;37.782;2023-03-01T04:20:37;146113.13;;;-4.93;62.29
33422;BME280;19763;55.798;37.782;2023-03-01T04:23:19;146075.19;;;-5.09;62.96
33422;BME280;19763;55.798;37.782;2023-03-01T04:25:51;146046.06;;;-5.21;63.51
33422;BME280;19763;55.798;37.782;2023-03-01T04:28:22;146015.72;;;-5.33;63.79
33422;BME280;19763;55.798;37.782;2023-03-01T04:30:50;146075.19;;;-5.09;63.67
33422;BME280;19763;55.798;37.782;2023-03-01T04:33:16;146097.94;;;-4.99;64.20
33422;BME280;19763;55.798;37.782;2023-03-01T04:35:41;146070.09;;;-5.11;64.94
33422;BME280;19763;55.798;37.782;2023-03-01T04:38:07;146072.66;;;-5.10;63.38
33422;BME280;19763;55.798;37.782;2023-03-01T04:40:33;146095.41;;;-5.00;64.39
33422;BME280;19763;55.798;37.782;2023-03-01T04:42:59;146086.56;;;-5.04;64.88
33422;BME280;19763;55.798;37.782;2023-03-01T04:45:24;146037.22;;;-5.24;64.77
33422;BME280;19763;55.798;37.782;2023-03-01T04:47:50;146048.59;;;-5.20;65.12
33422;BME280;19763;55.798;37.782;2023-03-01T04:50:18;146099.19;;;-4.99;63.90
33422;BME280;19763;55.798;37.782;2023-03-01T04:52:46;146075.19;;;-5.09;65.02
33422;BME280;19763;55.798;37.782;2023-03-01T04:55:12;146135.94;;;-4.84;64.04
33422;BME280;19763;55.798;37.782;2023-03-01T04:57:38;146082.78;;;-5.06;63.17
33422;BME280;19763;55.798;37.782;2023-03-01T05:00:06;146094.16;;;-5.01;64.03
33422;BME280;19763;55.798;37.782;2023-03-01T05:02:59;146070.09;;;-5.11;63.70
33422;BME280;19763;55.798;37.782;2023-03-01T05:05:33;146100.50;;;-4.98;64.64
33422;BME280;19763;55.798;37.782;2023-03-01T05:08:01;146128.34;;;-4.87;63.60
33422;BME280;19763;55.798;37.782;2023-03-01T05:10:29;146071.34;;;-5.10;64.55
33422;BME280;19763;55.798;37.782;2023-03-01T05:12:55;146114.41;;;-4.93;64.84
33422;BME280;19763;55.798;37.782;2023-03-01T05:15:23;146133.38;;;-4.85;64.74
33422;BME280;19763;55.798;37.782;2023-03-01T05:17:51;146071.34;;;-5.10;64.15
33422;BME280;19763;55.798;37.782;2023-03-01T05:20:17;146129.59;;;-4.87;63.03
33422;BME280;19763;55.798;37.782;2023-03-01T05:22:43;146120.75;;;-4.90;64.44
33422;BME280;19763;55.798;37.782;2023-03-01T05:25:09;146138.47;;;-4.83;63.92
33422;BME280;19763;55.798;37.782;2023-03-01T05:27:35;146108.09;;;-4.95;63.57
33422;BME280;19763;55.798;37.782;2023-03-01T05:30:01;146139.72;;;-4.82;64.15
33422;BME280;19763;55.798;37.782;2023-03-01T05:32:42;146186.56;;;-4.63;63.84
33422;BME280;19763;55.798;37.782;2023-03-01T05:35:14;146177.72;;;-4.67;63.62
33422;BME280;19763;55.798;37.782;2023-03-01T05:37:45;146189.09;;;-4.62;63.46
33422;BME280;19763;55.798;37.782;2023-03-01T05:40:13;146229.63;;;-4.46;63.61
33422;BME280;19763;55.798;37.782;2023-03-01T05:42:50;146165.03;;;-4.72;62.88
33422;BME280;19763;55.798;37.782;2023-03-01T05:45:17;146268.88;;;-4.30;63.84
33422;BME280;19763;55.798;37.782;2023-03-01T05:47:45;146222.00;;;-4.49;63.09
33422;BME280;19763;55.798;37.782;2023-03-01T05:50:16;146272.69;;;-4.28;63.13
33422;BME280;19763;55.798;37.782;2023-03-01T05:52:50;146281.53;;;-4.25;64.39
33422;BME280;19763;55.798;37.782;2023-03-01T05:55:20;146301.78;;;-4.17;62.79
33422;BME280;19763;55.798;37.782;2023-03-01T05:57:46;146311.94;;;-4.12;63.70
33422;BME280;19763;55.798;37.782;2023-03-01T06:00:13;146287.88;;;-4.22;63.84
33422;BME280;19763;55.798;37.782;2023-03-01T06:02:39;146313.19;;;-4.12;64.37
33422;BME280;19763;55.798;37.782;2023-03-01T06:05:08;146320.81;;;-4.09;63.90
33422;BME280;19763;55.798;37.782;2023-03-01T06:07:34;146305.59;;;-4.15;63.72
33422;BME280;19763;55.798;37.782;2023-03-01T06:10:00;146325.88;;;-4.07;63.12
33422;BME280;19763;55.798;37.782;2023-03-01T06:12:26;146336.00;;;-4.03;62.38
33422;BME280;19763;55.798;37.782;2023-03-01T06:14:55;146336.00;;;-4.03;62.62
33422;BME280;19763;55.798;37.782;2023-03-01T06:17:21;146342.34;;;-4.00;63.04
33422;BME280;19763;55.798;37.782;2023-03-01T06:19:46;146374.03;;;-3.87;62.36
33422;BME280;19763;55.798;37.782;2023-03-01T06:22:12;146367.69;;;-3.90;63.18
33422;BME280;19763;55.798;37.782;2023-03-01T06:24:38;146375.28;;;-3.87;61.45
33422;BME280;19763;55.798;37.782;2023-03-01T06:27:04;146381.63;;;-3.84;62.70
33422;BME280;19763;55.798;37.782;2023-03-01T06:29:30;146453.88;;;-3.55;61.98
33422;BME280;19763;55.798;37.782;2023-03-01T06:31:55;146452.56;;;-3.55;60.89
33422;BME280;19763;55.798;37.782;2023-03-01T06:34:21;146446.22;;;-3.58;61.78
33422;BME280;19763;55.798;37.782;2023-03-01T06:36:47;146546.38;;;-3.17;61.39
33422;BME280;19763;55.798;37.782;2023-03-01T06:39:12;146528.63;;;-3.24;60.70
33422;BME280;19763;55.798;37.782;2023-03-01T06:41:38;146581.88;;;-3.03;60.17
33422;BME280;19763;55.798;37.782;2023-03-01T06:44:04;146614.81;;;-2.89;59.16
33422;BME280;19763;55.798;37.782;2023-03-01T06:46:29;146619.91;;;-2.87;58.88
33422;BME280;19763;55.798;37.782;2023-03-01T06:48:55;146637.69;;;-2.80;58.59
33422;BME280;19763;55.798;37.782;2023-03-01T06:51:21;146652.88;;;-2.74;58.77
33422;BME280;19763;55.798;37.782;2023-03-01T06:53:46;146632.56;;;-2.82;59.48
33422;BME280;19763;55.798;37.782;2023-03-01T06:56:12;146810.19;;;-2.10;58.12
33422;BME280;19763;55.798;37.782;2023-03-01T06:58:37;146815.31;;;-2.08;57.85
33422;BME280;19763;55.798;37.782;2023-03-01T07:01:07;146869.84;;;-1.86;57.18
33422;BME280;19763;55.798;37.782;2023-03-01T07:03:33;147000.59;;;-1.33;56.53
33422;BME280;19763;55.798;37.782;2023-03-01T07:05:59;147245.81;;;-0.33;54.19
33422;BME280;19763;55.798;37.782;2023-03-01T07:08:24;147247.06;;;-0.33;53.44
33422;BME280;19763;55.798;37.782;2023-03-01T07:10:57;147238.19;;;-0.37;53.92
33422;BME280;19763;55.798;37.782;2023-03-01T07:13:23;147064.09;;;-1.07;54.39
33422;BME280;19763;55.798;37.782;2023-03-01T07:15:48;147066.66;;;-1.06;53.82
33422;BME280;19763;55.798;37.782;2023-03-01T07:18:14;147051.44;;;-1.12;54.41
33422;BME280;19763;55.798;37.782;2023-03-01T07:20:39;146972.66;;;-1.44;53.56
33422;BME280;19763;55.798;37.782;2023-03-01T07:23:06;146993.00;;;-1.36;54.16
33422;BME280;19763;55.798;37.782;2023-03-01T07:25:32;147005.72;;;-1.31;55.36
33422;BME280;19763;55.798;37.782;2023-03-01T07:27:58;146880.00;;;-1.82;54.99
33422;BME280;19763;55.798;37.782;2023-03-01T07:30:24;146939.66;;;-1.58;55.18
33422;BME280;19763;55.798;37.782;2023-03-01T07:32:52;146963.81;;;-1.48;55.88
33422;BME280;19763;55.798;37.782;2023-03-01T07:35:18;146980.28;;;-1.41;55.63
33422;BME280;19763;55.798;37.782;2023-03-01T07:37:44;147116.19;;;-0.86;55.76
33422;BME280;19763;55.798;37.782;2023-03-01T07:40:10;147156.88;;;-0.70;55.23
33422;BME280;19763;55.798;37.782;2023-03-01T07:42:35;147309.38;;;-0.08;52.33
33422;BME280;19763;55.798;37.782;2023-03-01T07:45:01;147318.28;;;-0.04;51.94
33422;BME280;19763;55.798;37.782;2023-03-01T07:47:28;147497.59;;;0.68;51.69
33422;BME280;19763;55.798;37.782;2023-03-01T07:49:53;147524.28;;;0.79;51.05
33422;BME280;19763;55.798;37.782;2023-03-01T07:52:19;147491.22;;;0.66;50.76
33422;BME280;19763;55.798;37.782;2023-03-01T07:54:44;147542.09;;;0.86;48.57
33422;BME280;19763;55.798;37.782;2023-03-01T07:57:11;147539.53;;;0.85;48.74
33422;BME280;19763;55.798;37.782;2023-03-01T07:59:36;147489.94;;;0.65;49.87
33422;BME280;19763;55.798;37.782;2023-03-01T08:02:02;147437.81;;;0.44;50.17
33422;BME280;19763;55.798;37.782;2023-03-01T08:04:27;147381.84;;;0.22;51.85
33422;BME280;19763;55.798;37.782;2023-03-01T08:06:54;147491.22;;;0.66;50.02
33422;BME280;19763;55.798;37.782;2023-03-01T08:09:21;147464.50;;;0.55;49.99
33422;BME280;19763;55.798;37.782;2023-03-01T08:11:46;147510.28;;;0.74;50.00
33422;BME280;19763;55.798;37.782;2023-03-01T08:14:12;147600.66;;;1.10;48.65
33422;BME280;19763;55.798;37.782;2023-03-01T08:16:38;147651.53;;;1.31;50.26
33422;BME280;19763;55.798;37.782;2023-03-01T08:19:11;147618.47;;;1.17;49.31
33422;BME280;19763;55.798;37.782;2023-03-01T08:21:37;147766.13;;;1.77;49.95
33422;BME280;19763;55.798;37.782;2023-03-01T08:24:04;147810.66;;;1.95;47.46
33422;BME280;19763;55.798;37.782;2023-03-01T08:26:31;147831.06;;;2.03;47.24
33422;BME280;19763;55.798;37.782;2023-03-01T08:28:57;147811.97;;;1.96;46.95
33422;BME280;19763;55.798;37.782;2023-03-01T08:31:26;147875.66;;;2.21;46.40
33422;BME280;19763;55.798;37.782;2023-03-01T08:33:55;147811.97;;;1.96;46.66
33422;BME280;19763;55.798;37.782;2023-03-01T08:36:29;147913.88;;;2.37;46.50
33422;BME280;19763;55.798;37.782;2023-03-01T08:38:55;147996.66;;;2.70;48.20
33422;BME280;19763;55.798;37.782;2023-03-01T08:41:21;148010.69;;;2.76;47.54
33422;BME280;19763;55.798;37.782;2023-03-01T08:43:46;148129.25;;;3.24;46.87
33422;BME280;19763;55.798;37.782;2023-03-01T08:46:13;148087.19;;;3.07;46.82
33422;BME280;19763;55.798;37.782;2023-03-01T08:48:39;148060.38;;;2.96;48.18
33422;BME280;19763;55.798;37.782;2023-03-01T08:51:15;148034.91;;;2.86;46.84
33422;BME280;19763;55.798;37.782;2023-03-01T08:53:42;148144.53;;;3.30;46.67
33422;BME280;19763;55.798;37.782;2023-03-01T08:56:08;148185.34;;;3.47;45.73
33422;BME280;19763;55.798;37.782;2023-03-01T08:58:35;148403.44;;;4.35;44.10
33422;BME280;19763;55.798;37.782;2023-03-01T09:01:04;148305.25;;;3.95;45.08
33422;BME280;19763;55.798;37.782;2023-03-01T09:03:31;148105.03;;;3.14;46.61
33422;BME280;19763;55.798;37.782;2023-03-01T09:06:00;147921.50;;;2.40;47.71
33422;BME280;19763;55.798;37.782;2023-03-01T09:08:26;148056.56;;;2.94;45.93
33422;BME280;19763;55.798;37.782;2023-03-01T09:10:52;148131.75;;;3.25;46.35
33422;BME280;19763;55.798;37.782;2023-03-01T09:13:18;148351.16;;;4.13;44.49
33422;BME280;19763;55.798;37.782;2023-03-01T09:15:43;148343.47;;;4.10;44.97
33422;BME280;19763;55.798;37.782;2023-03-01T09:18:09;148552.81;;;4.95;44.40
33422;BME280;19763;55.798;37.782;2023-03-01T09:20:34;148513.25;;;4.79;42.23
33422;BME280;19763;55.798;37.782;2023-03-01T09:23:00;148611.53;;;5.18;43.69
33422;BME280;19763;55.798;37.782;2023-03-01T09:25:28;148702.22;;;5.55;43.44
33422;BME280;19763;55.798;37.782;2023-03-01T09:28:06;148637.09;;;5.29;42.29
33422;BME280;19763;55.798;37.782;2023-03-01T09:30:59;148596.22;;;5.12;42.10
33422;BME280;19763;55.798;37.782;2023-03-01T09:33:34;148422.59;;;4.42;42.85
33422;BME280;19763;55.798;37.782;2023-03-01T09:36:06;148272.03;;;3.82;43.32
33422;BME280;19763;55.798;37.782;2023-03-01T09:38:33;148199.38;;;3.52;44.57
33422;BME280;19763;55.798;37.782;2023-03-01T09:41:00;148149.66;;;3.32;46.29
33422;BME280;19763;55.798;37.782;2023-03-01T09:43:45;148014.50;;;2.78;45.95
33422;BME280;19763;55.798;37.782;2023-03-01T09:46:32;147845.06;;;2.09;46.15
33422;BME280;19763;55.798;37.782;2023-03-01T09:49:14;147764.81;;;1.77;47.10
33422;BME280;19763;55.798;37.782;2023-03-01T09:52:39;147733.00;;;1.64;48.28
33422;BME280;19763;55.798;37.782;2023-03-01T09:55:16;147624.84;;;1.20;49.45
33422;BME280;19763;55.798;37.782;2023-03-01T09:57:55;147638.84;;;1.26;48.50
33422;BME280;19763;55.798;37.782;2023-03-01T10:00:33;147623.53;;;1.19;49.93
33422;BME280;19763;55.798;37.782;2023-03-01T10:06:20;147568.84;;;0.97;51.15
33422;BME280;19763;55.798;37.782;2023-03-01T10:08:49;147497.59;;;0.68;50.74
33422;BME280;19763;55.798;37.782;2023-03-01T10:11:25;147468.31;;;0.57;52.02
33422;BME280;19763;55.798;37.782;2023-03-01T10:13:58;147356.38;;;0.11;52.25
33422;BME280;19763;55.798;37.782;2023-03-01T10:16:57;147399.66;;;0.29;52.43
33422;BME280;19763;55.798;37.782;2023-03-01T10:22:10;147304.31;;;-0.10;53.64
33422;BME280;19763;55.798;37.782;2023-03-01T10:24:38;147357.69;;;0.12;52.97
33422;BME280;19763;55.798;37.782;2023-03-01T10:27:25;147392.03;;;0.26;53.84
33422;BME280;19763;55.798;37.782;2023-03-01T10:30:16;147325.91;;;-0.01;53.69
33422;BME280;19763;55.798;37.782;2023-03-01T10:32:46;147342.41;;;0.06;53.20
33422;BME280;19763;55.798;37.782;2023-03-01T10:38:03;147364.06;;;0.14;54.70
33422;BME280;19763;55.798;37.782;2023-03-01T10:40:29;147324.59;;;-0.02;52.59
33422;BME280;19763;55.798;37.782;2023-03-01T10:43:04;147244.56;;;-0.34;54.66
33422;BME280;19763;55.798;37.782;2023-03-01T10:50:45;147295.38;;;-0.13;54.82
33422;BME280;19763;55.798;37.782;2023-03-01T10:56:22;147332.28;;;0.02;53.58
33422;BME280;19763;55.798;37.782;2023-03-01T10:59:05;147290.31;;;-0.15;54.12
33422;BME280;19763;55.798;37.782;2023-03-01T11:01:35;147253.44;;;-0.30;54.69
33422;BME280;19763;55.798;37.782;2023-03-01T11:06:33;147254.72;;;-0.30;52.76
33422;BME280;19763;55.798;37.782;2023-03-01T11:11:43;147266.16;;;-0.25;52.72
33422;BME280;19763;55.798;37.782;2023-03-01T11:14:16;147155.56;;;-0.70;53.41
33422;BME280;19763;55.798;37.782;2023-03-01T11:16:45;147118.75;;;-0.85;53.90
33422;BME280;19763;55.798;37.782;2023-03-01T11:24:01;147188.63;;;-0.57;55.38
33422;BME280;19763;55.798;37.782;2023-03-01T11:26:28;147175.91;;;-0.62;53.88
33422;BME280;19763;55.798;37.782;2023-03-01T11:28:58;147269.97;;;-0.24;54.23
33422;BME280;19763;55.798;37.782;2023-03-01T11:31:28;147258.53;;;-0.28;54.30
33422;BME280;19763;55.798;37.782;2023-03-01T11:34:05;147258.53;;;-0.28;53.35
33422;BME280;19763;55.798;37.782;2023-03-01T11:36:50;147219.09;;;-0.44;52.52
33422;BME280;19763;55.798;37.782;2023-03-01T11:42:44;147271.22;;;-0.23;51.94
33422;BME280;19763;55.798;37.782;2023-03-01T11:45:12;147282.66;;;-0.19;52.66
33422;BME280;19763;55.798;37.782;2023-03-01T11:50:40;147283.94;;;-0.18;52.48
33422;BME280;19763;55.798;37.782;2023-03-01T11:53:39;147323.34;;;-0.02;52.38
33422;BME280;19763;55.798;37.782;2023-03-01T11:56:43;147318.28;;;-0.04;53.38
33422;BME280;19763;55.798;37.782;2023-03-01T12:05:03;147313.16;;;-0.06;51.43
33422;BME280;19763;55.798;37.782;2023-03-01T12:07:49;147248.38;;;-0.32;53.11
33422;BME280;19763;55.798;37.782;2023-03-01T12:10:29;147266.16;;;-0.25;52.29
33422;BME280;19763;55.798;37.782;2023-03-01T12:15:59;147170.84;;;-0.64;51.71
33422;BME280;19763;55.798;37.782;2023-03-01T12:19:26;147211.47;;;-0.47;53.95
33422;BME280;19763;55.798;37.782;2023-03-01T12:38:50;147281.41;;;-0.19;51.90
33422;BME280;19763;55.798;37.782;2023-03-01T12:49:45;147273.78;;;-0.22;51.92
33422;BME280;19763;55.798;37.782;2023-03-01T12:52:17;147206.44;;;-0.49;51.76
33422;BME280;19763;55.798;37.782;2023-03-01T12:54:49;147245.81;;;-0.33;52.93
33422;BME280;19763;55.798;37.782;2023-03-01T12:57:30;147189.88;;;-0.56;51.97
33422;BME280;19763;55.798;37.782;2023-03-01T13:03:22;147182.28;;;-0.59;53.19
33422;BME280;19763;55.798;37.782;2023-03-01T13:06:08;147170.84;;;-0.64;51.56
33422;BME280;19763;55.798;37.782;2023-03-01T13:11:16;147201.31;;;-0.52;53.61
33422;BME280;19763;55.798;37.782;2023-03-01T13:13:43;147144.16;;;-0.75;53.71
33422;BME280;19763;55.798;37.782;2023-03-01T13:19:21;147165.75;;;-0.66;52.33
33422;BME280;19763;55.798;37.782;2023-03-01T13:21:49;147160.69;;;-0.68;53.46
33422;BME280;19763;55.798;37.782;2023-03-01T13:27:09;147145.41;;;-0.74;54.12
33422;BME280;19763;55.798;37.782;2023-03-01T13:34:57;147136.53;;;-0.78;53.64
33422;BME280;19763;55.798;37.782;2023-03-01T13:37:34;147145.41;;;-0.74;54.83
33422;BME280;19763;55.798;37.782;2023-03-01T13:42:58;147173.34;;;-0.63;53.55
33422;BME280;19763;55.798;37.782;2023-03-01T13:45:39;147092.06;;;-0.96;54.42
33422;BME280;19763;55.798;37.782;2023-03-01T13:48:18;147051.44;;;-1.12;55.54
33422;BME280;19763;55.798;37.782;2023-03-01T13:51:00;147065.41;;;-1.07;54.65
33422;BME280;19763;55.798;37.782;2023-03-01T13:53:31;147087.00;;;-0.98;53.62
33422;BME280;19763;55.798;37.782;2023-03-01T13:56:08;147051.44;;;-1.12;54.88
33422;BME280;19763;55.798;37.782;2023-03-01T13:58:50;147059.03;;;-1.09;54.66
33422;BME280;19763;55.798;37.782;2023-03-01T14:01:33;147009.53;;;-1.29;54.83
33422;BME280;19763;55.798;37.782;2023-03-01T14:04:01;147085.69;;;-0.98;54.55
33422;BME280;19763;55.798;37.782;2023-03-01T14:06:32;147003.16;;;-1.32;53.27
33422;BME280;19763;55.798;37.782;2023-03-01T14:09:17;147065.41;;;-1.07;54.03
33422;BME280;19763;55.798;37.782;2023-03-01T14:14:43;146995.53;;;-1.35;53.25
33422;BME280;19763;55.798;37.782;2023-03-01T14:20:09;146985.38;;;-1.39;54.34
33422;BME280;19763;55.798;37.782;2023-03-01T14:22:36;147003.16;;;-1.32;54.79
33422;BME280;19763;55.798;37.782;2023-03-01T14:25:06;146982.84;;;-1.40;54.16
33422;BME280;19763;55.798;37.782;2023-03-01T14:27:41;146926.97;;;-1.63;56.76
33422;BME280;19763;55.798;37.782;2023-03-01T14:30:24;146887.63;;;-1.79;56.59
33422;BME280;19763;55.798;37.782;2023-03-01T14:32:57;146915.56;;;-1.67;56.24
33422;BME280;19763;55.798;37.782;2023-03-01T14:35:26;146940.94;;;-1.57;57.08
33422;BME280;19763;55.798;37.782;2023-03-01T14:37:52;146966.34;;;-1.47;56.67
33422;BME280;19763;55.798;37.782;2023-03-01T14:40:25;147000.59;;;-1.33;55.69
33422;BME280;19763;55.798;37.782;2023-03-01T14:42:53;146965.06;;;-1.47;56.95